createdAt,value
2016-10-31T00:00:09.096Z,1015.72
2016-10-31T00:00:30.822Z,1015.80
2016-10-31T00:00:52.546Z,1015.96
2016-10-31T00:01:14.276Z,1015.74
2016-10-31T00:01:36.020Z,1015.93
2016-10-31T00:01:57.774Z,1015.80
2016-10-31T00:02:19.495Z,1015.77
2016-10-31T00:02:41.219Z,1015.90
2016-10-31T00:03:02.945Z,1015.84
2016-10-31T00:03:24.667Z,1015.94
2016-10-31T00:03:46.396Z,1015.95
2016-10-31T00:04:08.128Z,1016.04
2016-10-31T00:04:29.855Z,1015.99
2016-10-31T00:04:52.588Z,1016.00
2016-10-31T00:05:14.308Z,1015.95
2016-10-31T00:05:36.049Z,1015.86
2016-10-31T00:05:57.765Z,1015.96
2016-10-31T00:06:19.486Z,1015.95
2016-10-31T00:06:41.223Z,1015.81
2016-10-31T00:07:02.938Z,1015.75
2016-10-31T00:07:24.667Z,1015.83
2016-10-31T00:07:46.425Z,1015.87
2016-10-31T00:08:08.117Z,1015.90
2016-10-31T00:08:29.836Z,1015.86
2016-10-31T00:08:51.563Z,1015.72
2016-10-31T00:09:13.301Z,1015.73
2016-10-31T00:09:35.026Z,1015.73
2016-10-31T00:09:56.743Z,1015.87
2016-10-31T00:10:18.588Z,1016.09
2016-10-31T00:10:40.302Z,1015.90
2016-10-31T00:11:02.043Z,1015.79
2016-10-31T00:11:23.765Z,1015.94
2016-10-31T00:11:45.483Z,1015.70
2016-10-31T00:12:07.287Z,1015.67
2016-10-31T00:12:29.022Z,1015.82
2016-10-31T00:12:50.749Z,1015.81
2016-10-31T00:13:12.491Z,1015.85
2016-10-31T00:13:34.208Z,1015.87
2016-10-31T00:13:55.928Z,1015.83
2016-10-31T00:14:17.654Z,1015.61
2016-10-31T00:14:39.374Z,1015.80
2016-10-31T00:15:01.109Z,1015.85
2016-10-31T00:15:23.813Z,1015.92
2016-10-31T00:15:45.538Z,1015.87
2016-10-31T00:16:07.261Z,1015.87
2016-10-31T00:16:28.978Z,1015.82
2016-10-31T00:16:50.704Z,1015.79
2016-10-31T00:17:12.430Z,1015.89
2016-10-31T00:17:34.151Z,1016.08
2016-10-31T00:17:55.867Z,1016.10
2016-10-31T00:18:17.617Z,1015.95
2016-10-31T00:18:39.338Z,1015.80
2016-10-31T00:19:01.065Z,1015.87
2016-10-31T00:19:22.796Z,1015.85
2016-10-31T00:19:44.625Z,1015.80
2016-10-31T00:20:06.347Z,1015.89
2016-10-31T00:20:28.077Z,1015.85
2016-10-31T00:20:49.805Z,1015.83
2016-10-31T00:21:11.533Z,1015.77
2016-10-31T00:21:33.255Z,1015.75
2016-10-31T00:21:54.997Z,1015.92
2016-10-31T00:22:16.719Z,1015.66
2016-10-31T00:22:38.440Z,1015.61
2016-10-31T00:23:00.181Z,1015.73
2016-10-31T00:23:21.910Z,1015.72
2016-10-31T00:23:43.634Z,1015.76
2016-10-31T00:24:05.365Z,1015.84
2016-10-31T00:24:27.092Z,1015.86
2016-10-31T00:24:48.818Z,1016.03
2016-10-31T00:25:10.552Z,1015.93
2016-10-31T00:25:32.272Z,1015.76
2016-10-31T00:25:53.997Z,1015.85
2016-10-31T00:26:15.718Z,1015.99
2016-10-31T00:26:37.437Z,1015.83
2016-10-31T00:26:59.184Z,1015.73
2016-10-31T00:27:20.892Z,1015.86
2016-10-31T00:27:42.623Z,1015.87
2016-10-31T00:28:04.347Z,1015.92
2016-10-31T00:28:26.080Z,1015.86
2016-10-31T00:28:47.820Z,1015.80
2016-10-31T00:29:09.548Z,1015.92
2016-10-31T00:29:31.307Z,1015.97
2016-10-31T00:29:54.026Z,1015.99
2016-10-31T00:30:15.746Z,1015.90
2016-10-31T00:30:37.471Z,1015.77
2016-10-31T00:30:59.202Z,1015.79
2016-10-31T00:31:20.925Z,1015.69
2016-10-31T00:31:42.772Z,1015.76
2016-10-31T00:32:04.512Z,1015.62
2016-10-31T00:32:26.234Z,1015.77
2016-10-31T00:32:47.969Z,1015.88
2016-10-31T00:33:09.697Z,1015.82
2016-10-31T00:33:31.419Z,1015.78
2016-10-31T00:33:53.137Z,1015.98
2016-10-31T00:34:14.856Z,1015.94
2016-10-31T00:34:36.597Z,1015.97
2016-10-31T00:34:58.333Z,1016.09
2016-10-31T00:35:20.092Z,1015.97
2016-10-31T00:35:41.823Z,1015.95
2016-10-31T00:36:03.542Z,1015.92
2016-10-31T00:36:25.283Z,1015.88
2016-10-31T00:36:47.024Z,1015.75
2016-10-31T00:37:08.747Z,1015.80
2016-10-31T00:37:30.476Z,1015.76
2016-10-31T00:37:52.201Z,1015.99
2016-10-31T00:38:13.928Z,1015.83
2016-10-31T00:38:35.655Z,1015.82
2016-10-31T00:38:57.373Z,1015.88
2016-10-31T00:39:19.095Z,1015.88
2016-10-31T00:39:40.824Z,1015.82
2016-10-31T00:40:02.541Z,1015.89
2016-10-31T00:40:24.271Z,1015.87
2016-10-31T00:40:46.020Z,1015.88
2016-10-31T00:41:07.742Z,1015.77
2016-10-31T00:41:29.461Z,1015.65
2016-10-31T00:41:51.179Z,1015.83
2016-10-31T00:42:12.901Z,1015.54
2016-10-31T00:42:34.628Z,1015.73
2016-10-31T00:42:56.345Z,1015.84
2016-10-31T00:43:18.068Z,1015.95
2016-10-31T00:43:39.789Z,1015.89
2016-10-31T00:44:01.523Z,1015.81
2016-10-31T00:44:23.244Z,1015.91
2016-10-31T00:44:47.067Z,1015.87
2016-10-31T00:45:08.708Z,1015.80
2016-10-31T00:45:30.432Z,1015.78
2016-10-31T00:45:52.162Z,1015.85
2016-10-31T00:46:13.883Z,1015.78
2016-10-31T00:46:35.606Z,1015.85
2016-10-31T00:46:57.323Z,1015.83
2016-10-31T00:47:19.171Z,1015.78
2016-10-31T00:47:40.892Z,1015.84
2016-10-31T00:48:02.611Z,1015.80
2016-10-31T00:48:24.334Z,1015.73
2016-10-31T00:48:48.096Z,1015.77
2016-10-31T00:49:09.797Z,1015.84
2016-10-31T00:49:31.524Z,1015.83
2016-10-31T00:49:53.258Z,1015.66
2016-10-31T00:50:14.977Z,1015.82
2016-10-31T00:50:37.694Z,1015.77
2016-10-31T00:50:59.444Z,1015.77
2016-10-31T00:51:21.180Z,1015.64
2016-10-31T00:51:42.902Z,1015.72
2016-10-31T00:52:04.623Z,1015.74
2016-10-31T00:52:26.351Z,1015.90
2016-10-31T00:52:48.095Z,1015.80
2016-10-31T00:53:09.813Z,1015.85
2016-10-31T00:53:31.536Z,1015.90
2016-10-31T00:53:53.259Z,1015.81
2016-10-31T00:54:14.985Z,1015.75
2016-10-31T00:54:36.715Z,1015.65
2016-10-31T00:54:58.444Z,1015.67
2016-10-31T00:55:20.164Z,1015.67
2016-10-31T00:55:41.884Z,1015.83
2016-10-31T00:56:03.620Z,1015.82
2016-10-31T00:56:25.340Z,1015.74
2016-10-31T00:56:47.066Z,1015.60
2016-10-31T00:57:08.782Z,1015.71
2016-10-31T00:57:30.509Z,1015.63
2016-10-31T00:57:52.368Z,1015.84
2016-10-31T00:58:14.092Z,1015.78
2016-10-31T00:58:35.821Z,1015.93
2016-10-31T00:58:58.535Z,1015.77
2016-10-31T00:59:20.262Z,1015.67
2016-10-31T00:59:41.985Z,1015.74
2016-10-31T01:00:03.709Z,1015.60
2016-10-31T01:00:25.441Z,1015.49
2016-10-31T01:00:47.164Z,1015.57
2016-10-31T01:01:08.884Z,1015.81
2016-10-31T01:01:30.604Z,1015.85
2016-10-31T01:01:52.360Z,1015.79
2016-10-31T01:02:14.091Z,1015.77
2016-10-31T01:02:35.812Z,1015.74
2016-10-31T01:02:57.543Z,1015.63
2016-10-31T01:03:19.271Z,1015.80
2016-10-31T01:03:40.992Z,1015.70
2016-10-31T01:04:02.737Z,1015.70
2016-10-31T01:04:24.450Z,1015.74
2016-10-31T01:04:46.170Z,1015.53
2016-10-31T01:05:07.898Z,1015.51
2016-10-31T01:05:29.634Z,1015.63
2016-10-31T01:05:51.353Z,1015.80
2016-10-31T01:06:13.087Z,1015.79
2016-10-31T01:06:34.806Z,1015.78
2016-10-31T01:06:56.526Z,1015.89
2016-10-31T01:07:18.271Z,1015.99
2016-10-31T01:07:44.804Z,1015.94
2016-10-31T01:08:06.703Z,1015.90
2016-10-31T01:08:28.440Z,1015.81
2016-10-31T01:08:50.172Z,1015.82
2016-10-31T01:09:11.893Z,1015.75
2016-10-31T01:09:33.614Z,1015.73
2016-10-31T01:09:55.341Z,1015.80
2016-10-31T01:10:17.066Z,1015.84
2016-10-31T01:10:38.793Z,1015.67
2016-10-31T01:11:00.525Z,1015.74
2016-10-31T01:11:22.277Z,1015.87
2016-10-31T01:11:44.023Z,1015.87
2016-10-31T01:12:05.777Z,1015.84
2016-10-31T01:12:27.503Z,1015.86
2016-10-31T01:12:49.222Z,1015.68
2016-10-31T01:13:10.940Z,1015.81
2016-10-31T01:13:32.668Z,1015.73
2016-10-31T01:13:54.391Z,1015.74
2016-10-31T01:14:16.137Z,1015.79
2016-10-31T01:14:37.883Z,1015.76
2016-10-31T01:14:59.599Z,1015.80
2016-10-31T01:15:21.317Z,1015.63
2016-10-31T01:15:43.037Z,1015.67
2016-10-31T01:16:04.764Z,1015.68
2016-10-31T01:16:26.492Z,1015.65
2016-10-31T01:16:48.210Z,1015.70
2016-10-31T01:17:09.935Z,1015.79
2016-10-31T01:17:31.664Z,1015.74
2016-10-31T01:17:53.385Z,1015.70
2016-10-31T01:18:15.104Z,1015.74
2016-10-31T01:18:36.821Z,1015.67
2016-10-31T01:18:58.539Z,1015.79
2016-10-31T01:19:20.260Z,1015.67
2016-10-31T01:19:41.978Z,1015.73
2016-10-31T01:20:03.718Z,1015.81
2016-10-31T01:20:25.438Z,1015.73
2016-10-31T01:20:47.161Z,1015.63
2016-10-31T01:21:08.890Z,1015.73
2016-10-31T01:21:30.615Z,1015.63
2016-10-31T01:21:52.331Z,1015.51
2016-10-31T01:22:14.055Z,1015.57
2016-10-31T01:22:35.783Z,1015.52
2016-10-31T01:22:57.524Z,1015.74
2016-10-31T01:23:19.246Z,1015.80
2016-10-31T01:23:41.083Z,1015.81
2016-10-31T01:24:02.799Z,1015.77
2016-10-31T01:24:24.524Z,1015.73
2016-10-31T01:24:46.253Z,1015.79
2016-10-31T01:25:07.966Z,1015.72
2016-10-31T01:25:29.692Z,1015.68
2016-10-31T01:25:51.428Z,1015.74
2016-10-31T01:26:13.152Z,1015.82
2016-10-31T01:26:34.873Z,1015.62
2016-10-31T01:26:56.592Z,1015.80
2016-10-31T01:27:18.316Z,1015.85
2016-10-31T01:27:40.049Z,1015.70
2016-10-31T01:28:01.850Z,1015.70
2016-10-31T01:28:23.583Z,1015.53
2016-10-31T01:28:45.317Z,1015.45
2016-10-31T01:29:07.043Z,1015.74
2016-10-31T01:29:28.777Z,1015.76
2016-10-31T01:29:50.505Z,1015.68
2016-10-31T01:30:12.221Z,1015.78
2016-10-31T01:30:33.939Z,1015.68
2016-10-31T01:30:55.653Z,1015.85
2016-10-31T01:31:17.373Z,1015.66
2016-10-31T01:31:39.095Z,1015.56
2016-10-31T01:32:00.818Z,1015.52
2016-10-31T01:32:22.535Z,1015.71
2016-10-31T01:32:44.260Z,1015.98
2016-10-31T01:33:05.990Z,1016.01
2016-10-31T01:33:27.728Z,1015.88
2016-10-31T01:33:49.450Z,1015.89
2016-10-31T01:34:11.185Z,1015.80
2016-10-31T01:34:33.915Z,1015.79
2016-10-31T01:34:55.641Z,1015.40
2016-10-31T01:35:17.362Z,1015.39
2016-10-31T01:35:39.091Z,1015.52
2016-10-31T01:36:00.807Z,1015.71
2016-10-31T01:36:22.533Z,1015.63
2016-10-31T01:36:44.276Z,1015.53
2016-10-31T01:37:06.053Z,1015.74
2016-10-31T01:37:27.767Z,1015.72
2016-10-31T01:37:49.494Z,1015.63
2016-10-31T01:38:11.218Z,1015.70
2016-10-31T01:38:32.943Z,1015.72
2016-10-31T01:38:54.666Z,1015.75
2016-10-31T01:39:16.388Z,1015.74
2016-10-31T01:39:38.115Z,1015.65
2016-10-31T01:39:59.835Z,1015.68
2016-10-31T01:40:21.559Z,1015.66
2016-10-31T01:40:43.292Z,1015.72
2016-10-31T01:41:05.009Z,1015.62
2016-10-31T01:41:26.759Z,1015.64
2016-10-31T01:41:48.481Z,1015.69
2016-10-31T01:42:10.210Z,1015.68
2016-10-31T01:42:31.930Z,1015.67
2016-10-31T01:42:53.662Z,1015.59
2016-10-31T01:43:15.381Z,1015.74
2016-10-31T01:43:41.977Z,1015.78
2016-10-31T01:44:03.704Z,1015.73
2016-10-31T01:44:25.435Z,1015.69
2016-10-31T01:44:47.277Z,1015.62
2016-10-31T01:45:08.995Z,1015.50
2016-10-31T01:45:30.720Z,1015.49
2016-10-31T01:45:52.441Z,1015.58
2016-10-31T01:46:14.170Z,1015.60
2016-10-31T01:46:35.893Z,1015.39
2016-10-31T01:46:57.622Z,1015.45
2016-10-31T01:47:19.342Z,1015.33
2016-10-31T01:47:41.066Z,1015.44
2016-10-31T01:48:02.797Z,1015.50
2016-10-31T01:48:24.516Z,1015.60
2016-10-31T01:48:46.237Z,1015.80
2016-10-31T01:49:07.985Z,1015.74
2016-10-31T01:49:29.700Z,1015.80
2016-10-31T01:49:51.421Z,1015.62
2016-10-31T01:50:13.143Z,1015.70
2016-10-31T01:50:37.543Z,1015.59
2016-10-31T01:50:59.264Z,1015.56
2016-10-31T01:51:20.999Z,1015.54
2016-10-31T01:52:13.987Z,1015.64
2016-10-31T01:52:35.718Z,1015.65
2016-10-31T01:52:57.442Z,1015.52
2016-10-31T01:53:19.189Z,1015.55
2016-10-31T01:53:40.933Z,1015.43
2016-10-31T01:54:02.666Z,1015.54
2016-10-31T01:54:24.390Z,1015.55
2016-10-31T01:54:46.109Z,1015.46
2016-10-31T01:55:07.833Z,1015.42
2016-10-31T01:55:34.322Z,1015.44
2016-10-31T01:55:56.042Z,1015.50
2016-10-31T01:56:17.762Z,1015.52
2016-10-31T01:56:39.479Z,1015.18
2016-10-31T01:57:01.198Z,1015.48
2016-10-31T01:57:22.919Z,1015.53
2016-10-31T01:57:44.646Z,1015.52
2016-10-31T01:58:06.370Z,1015.41
2016-10-31T01:58:28.096Z,1015.46
2016-10-31T01:58:49.812Z,1015.47
2016-10-31T01:59:11.553Z,1015.57
2016-10-31T01:59:33.275Z,1015.60
2016-10-31T01:59:55.000Z,1015.47
2016-10-31T02:00:16.729Z,1015.58
2016-10-31T02:00:38.447Z,1015.59
2016-10-31T02:01:00.169Z,1015.57
2016-10-31T02:01:21.886Z,1015.48
2016-10-31T02:01:43.610Z,1015.39
2016-10-31T02:02:05.349Z,1015.43
2016-10-31T02:02:27.068Z,1015.46
2016-10-31T02:02:48.788Z,1015.49
2016-10-31T02:03:10.506Z,1015.41
2016-10-31T02:03:32.235Z,1015.40
2016-10-31T02:03:53.955Z,1015.37
2016-10-31T02:04:15.685Z,1015.44
2016-10-31T02:04:37.402Z,1015.55
2016-10-31T02:04:59.131Z,1015.52
2016-10-31T02:05:20.853Z,1015.51
2016-10-31T02:05:42.580Z,1015.43
2016-10-31T02:06:04.305Z,1015.46
2016-10-31T02:06:26.019Z,1015.50
2016-10-31T02:06:47.757Z,1015.39
2016-10-31T02:07:09.553Z,1015.34
2016-10-31T02:07:31.280Z,1015.41
2016-10-31T02:07:53.000Z,1015.28
2016-10-31T02:08:14.728Z,1015.34
2016-10-31T02:08:36.451Z,1015.07
2016-10-31T02:08:58.171Z,1015.24
2016-10-31T02:09:19.886Z,1015.19
2016-10-31T02:09:41.613Z,1015.28
2016-10-31T02:10:03.344Z,1015.34
2016-10-31T02:10:25.062Z,1015.44
2016-10-31T02:10:46.787Z,1015.36
2016-10-31T02:11:08.513Z,1015.34
2016-10-31T02:11:30.247Z,1015.30
2016-10-31T02:11:51.966Z,1015.46
2016-10-31T02:12:13.685Z,1015.24
2016-10-31T02:12:35.404Z,1015.33
2016-10-31T02:12:57.167Z,1015.46
2016-10-31T02:13:18.893Z,1015.43
2016-10-31T02:13:40.620Z,1015.47
2016-10-31T02:14:02.341Z,1015.41
2016-10-31T02:14:24.066Z,1015.37
2016-10-31T02:14:45.795Z,1015.33
2016-10-31T02:15:07.532Z,1015.31
2016-10-31T02:15:29.261Z,1015.24
2016-10-31T02:15:50.977Z,1015.18
2016-10-31T02:16:12.699Z,1015.26
2016-10-31T02:16:34.422Z,1015.30
2016-10-31T02:16:56.140Z,1015.31
2016-10-31T02:17:17.943Z,1015.39
2016-10-31T02:17:44.434Z,1015.48
2016-10-31T02:18:06.151Z,1015.23
2016-10-31T02:18:28.005Z,1015.09
2016-10-31T02:18:49.727Z,1015.03
2016-10-31T02:19:11.448Z,1015.21
2016-10-31T02:19:33.179Z,1015.41
2016-10-31T02:19:57.713Z,1015.48
2016-10-31T02:20:19.433Z,1015.37
2016-10-31T02:20:41.149Z,1015.38
2016-10-31T02:21:02.865Z,1015.30
2016-10-31T02:21:24.585Z,1015.31
2016-10-31T02:21:46.303Z,1015.25
2016-10-31T02:22:08.024Z,1015.38
2016-10-31T02:22:29.743Z,1015.45
2016-10-31T02:22:51.466Z,1015.37
2016-10-31T02:23:39.679Z,1015.28
2016-10-31T02:24:01.399Z,1015.32
2016-10-31T02:24:23.119Z,1015.28
2016-10-31T02:24:44.843Z,1015.26
2016-10-31T02:25:06.570Z,1015.33
2016-10-31T02:25:28.290Z,1015.28
2016-10-31T02:25:50.008Z,1015.12
2016-10-31T02:26:11.728Z,1015.24
2016-10-31T02:26:33.447Z,1015.40
2016-10-31T02:26:55.177Z,1015.45
2016-10-31T02:27:17.100Z,1015.43
2016-10-31T02:27:38.834Z,1015.32
2016-10-31T02:28:00.549Z,1015.41
2016-10-31T02:28:22.275Z,1015.43
2016-10-31T02:28:43.994Z,1015.24
2016-10-31T02:29:05.709Z,1015.34
2016-10-31T02:29:27.429Z,1015.50
2016-10-31T02:29:49.154Z,1015.52
2016-10-31T02:30:10.875Z,1015.41
2016-10-31T02:30:32.727Z,1015.41
2016-10-31T02:30:54.438Z,1015.43
2016-10-31T02:31:16.155Z,1015.33
2016-10-31T02:31:37.875Z,1015.40
2016-10-31T02:31:59.598Z,1015.51
2016-10-31T02:32:21.323Z,1015.39
2016-10-31T02:32:43.059Z,1015.36
2016-10-31T02:33:04.771Z,1015.40
2016-10-31T02:33:26.490Z,1015.49
2016-10-31T02:33:48.219Z,1015.42
2016-10-31T02:34:09.934Z,1015.40
2016-10-31T02:34:31.663Z,1015.39
2016-10-31T02:34:53.483Z,1015.41
2016-10-31T02:35:15.229Z,1015.38
2016-10-31T02:35:36.951Z,1015.28
2016-10-31T02:35:58.680Z,1015.35
2016-10-31T02:36:20.398Z,1015.28
2016-10-31T02:36:42.120Z,1015.42
2016-10-31T02:37:03.857Z,1015.51
2016-10-31T02:37:25.578Z,1015.13
2016-10-31T02:37:52.081Z,1015.11
2016-10-31T02:38:13.822Z,1015.16
2016-10-31T02:38:35.543Z,1015.21
2016-10-31T02:38:57.264Z,1015.19
2016-10-31T02:39:18.982Z,1015.27
2016-10-31T02:39:40.717Z,1015.25
2016-10-31T02:40:02.452Z,1015.39
2016-10-31T02:40:24.166Z,1015.39
2016-10-31T02:40:45.895Z,1015.61
2016-10-31T02:41:07.651Z,1015.48
2016-10-31T02:41:29.395Z,1015.40
2016-10-31T02:41:51.109Z,1015.08
2016-10-31T02:42:12.854Z,1015.03
2016-10-31T02:42:34.576Z,1015.24
2016-10-31T02:42:56.315Z,1015.32
2016-10-31T02:43:18.038Z,1015.28
2016-10-31T02:43:39.765Z,1015.38
2016-10-31T02:44:01.480Z,1015.43
2016-10-31T02:44:23.201Z,1015.48
2016-10-31T02:44:44.920Z,1015.45
2016-10-31T02:45:06.757Z,1015.44
2016-10-31T02:45:28.488Z,1015.30
2016-10-31T02:45:50.210Z,1015.26
2016-10-31T02:46:11.930Z,1015.20
2016-10-31T02:46:33.649Z,1015.30
2016-10-31T02:46:55.367Z,1015.39
2016-10-31T02:47:17.092Z,1015.40
2016-10-31T02:47:38.808Z,1015.32
2016-10-31T02:48:00.529Z,1015.21
2016-10-31T02:48:22.273Z,1015.18
2016-10-31T02:48:44.002Z,1015.24
2016-10-31T02:49:05.723Z,1015.33
2016-10-31T02:49:27.441Z,1015.23
2016-10-31T02:49:49.161Z,1015.20
2016-10-31T02:50:10.877Z,1015.04
2016-10-31T02:50:32.597Z,1015.00
2016-10-31T02:50:54.329Z,1015.21
2016-10-31T02:51:16.066Z,1015.30
2016-10-31T02:51:37.789Z,1015.11
2016-10-31T02:51:59.506Z,1015.06
2016-10-31T02:52:21.224Z,1015.10
2016-10-31T02:52:42.947Z,1015.20
2016-10-31T02:53:04.666Z,1015.06
2016-10-31T02:53:26.386Z,1015.03
2016-10-31T02:53:48.104Z,1015.19
2016-10-31T02:54:09.827Z,1015.08
2016-10-31T02:54:31.545Z,1015.18
2016-10-31T02:54:53.272Z,1015.12
2016-10-31T02:55:14.994Z,1015.15
2016-10-31T02:55:36.728Z,1015.17
2016-10-31T02:55:58.463Z,1015.29
2016-10-31T02:56:20.177Z,1015.15
2016-10-31T02:56:41.903Z,1015.13
2016-10-31T02:57:03.628Z,1015.24
2016-10-31T02:57:25.367Z,1015.24
2016-10-31T02:57:47.089Z,1015.17
2016-10-31T02:58:08.820Z,1015.24
2016-10-31T02:58:30.548Z,1015.26
2016-10-31T02:58:52.270Z,1015.14
2016-10-31T02:59:13.999Z,1015.08
2016-10-31T02:59:35.715Z,1015.11
2016-10-31T02:59:57.444Z,1015.13
2016-10-31T03:00:19.174Z,1014.98
2016-10-31T03:00:40.907Z,1015.04
2016-10-31T03:01:02.628Z,1015.00
2016-10-31T03:01:24.346Z,1015.30
2016-10-31T03:01:46.071Z,1015.24
2016-10-31T03:02:07.789Z,1015.14
2016-10-31T03:02:29.510Z,1015.12
2016-10-31T03:02:51.240Z,1015.11
2016-10-31T03:03:12.965Z,1015.23
2016-10-31T03:03:34.682Z,1015.12
2016-10-31T03:03:56.402Z,1015.13
2016-10-31T03:04:18.127Z,1015.16
2016-10-31T03:04:39.845Z,1015.30
2016-10-31T03:05:01.573Z,1015.15
2016-10-31T03:05:23.298Z,1015.23
2016-10-31T03:05:45.025Z,1015.05
2016-10-31T03:06:06.759Z,1015.25
2016-10-31T03:06:28.485Z,1015.12
2016-10-31T03:06:50.221Z,1014.95
2016-10-31T03:07:11.945Z,1015.18
2016-10-31T03:07:33.685Z,1015.10
2016-10-31T03:07:55.393Z,1015.10
2016-10-31T03:08:17.120Z,1015.03
2016-10-31T03:08:38.835Z,1015.13
2016-10-31T03:09:00.553Z,1014.96
2016-10-31T03:09:22.278Z,1014.97
2016-10-31T03:09:43.995Z,1015.09
2016-10-31T03:10:05.842Z,1014.97
2016-10-31T03:10:27.562Z,1014.83
2016-10-31T03:10:49.283Z,1015.24
2016-10-31T03:11:11.007Z,1015.36
2016-10-31T03:11:32.722Z,1015.30
2016-10-31T03:11:54.444Z,1015.05
2016-10-31T03:12:16.166Z,1015.08
2016-10-31T03:12:37.937Z,1014.94
2016-10-31T03:12:59.662Z,1014.98
2016-10-31T03:13:21.383Z,1014.82
2016-10-31T03:13:43.106Z,1015.02
2016-10-31T03:14:04.824Z,1015.09
2016-10-31T03:14:26.634Z,1014.96
2016-10-31T03:14:48.356Z,1015.07
2016-10-31T03:15:10.075Z,1015.30
2016-10-31T03:15:31.803Z,1015.28
2016-10-31T03:15:53.522Z,1015.28
2016-10-31T03:16:15.243Z,1015.09
2016-10-31T03:16:36.963Z,1015.01
2016-10-31T03:16:58.680Z,1014.97
2016-10-31T03:17:20.400Z,1015.09
2016-10-31T03:17:43.123Z,1014.99
2016-10-31T03:18:04.851Z,1014.74
2016-10-31T03:18:26.582Z,1014.83
2016-10-31T03:18:48.299Z,1014.89
2016-10-31T03:19:10.020Z,1015.03
2016-10-31T03:19:31.743Z,1015.01
2016-10-31T03:19:53.475Z,1014.95
2016-10-31T03:20:15.201Z,1015.03
2016-10-31T03:20:36.919Z,1015.03
2016-10-31T03:21:03.409Z,1014.84
2016-10-31T03:21:25.126Z,1014.94
2016-10-31T03:21:46.847Z,1015.00
2016-10-31T03:22:08.575Z,1015.04
2016-10-31T03:22:30.308Z,1015.03
2016-10-31T03:22:52.085Z,1015.08
2016-10-31T03:23:13.805Z,1015.01
2016-10-31T03:23:35.536Z,1014.85
2016-10-31T03:23:57.260Z,1014.85
2016-10-31T03:24:18.979Z,1015.04
2016-10-31T03:24:40.716Z,1014.84
2016-10-31T03:25:02.444Z,1014.91
2016-10-31T03:25:24.165Z,1015.01
2016-10-31T03:25:45.901Z,1015.12
2016-10-31T03:26:07.625Z,1015.01
2016-10-31T03:26:29.350Z,1014.96
2016-10-31T03:26:51.075Z,1015.15
2016-10-31T03:27:12.799Z,1014.90
2016-10-31T03:27:34.529Z,1015.00
2016-10-31T03:27:56.251Z,1015.09
2016-10-31T03:28:17.971Z,1015.06
2016-10-31T03:28:39.690Z,1015.02
2016-10-31T03:29:01.405Z,1014.93
2016-10-31T03:29:23.132Z,1014.96
2016-10-31T03:29:44.851Z,1015.04
2016-10-31T03:30:06.576Z,1015.05
2016-10-31T03:30:28.300Z,1015.02
2016-10-31T03:30:50.016Z,1014.97
2016-10-31T03:31:11.753Z,1014.89
2016-10-31T03:31:33.472Z,1014.91
2016-10-31T03:31:55.189Z,1014.88
2016-10-31T03:32:16.919Z,1014.86
2016-10-31T03:32:39.643Z,1014.96
2016-10-31T03:33:01.371Z,1014.92
2016-10-31T03:33:23.100Z,1015.16
2016-10-31T03:33:44.825Z,1015.13
2016-10-31T03:34:06.552Z,1015.14
2016-10-31T03:34:28.268Z,1015.04
2016-10-31T03:34:49.991Z,1015.07
2016-10-31T03:35:11.710Z,1015.05
2016-10-31T03:35:33.532Z,1015.13
2016-10-31T03:35:55.257Z,1015.05
2016-10-31T03:36:16.978Z,1014.97
2016-10-31T03:36:38.701Z,1015.02
2016-10-31T03:37:00.419Z,1014.90
2016-10-31T03:37:22.137Z,1014.83
2016-10-31T03:37:43.859Z,1014.89
2016-10-31T03:38:06.585Z,1015.04
2016-10-31T03:38:28.314Z,1014.81
2016-10-31T03:38:50.042Z,1015.00
2016-10-31T03:39:11.768Z,1015.00
2016-10-31T03:39:33.496Z,1014.98
2016-10-31T03:39:55.219Z,1015.04
2016-10-31T03:40:16.942Z,1015.16
2016-10-31T03:40:38.672Z,1014.89
2016-10-31T03:41:05.167Z,1014.88
2016-10-31T03:41:26.892Z,1015.14
2016-10-31T03:41:48.613Z,1015.19
2016-10-31T03:42:10.336Z,1014.92
2016-10-31T03:42:32.062Z,1014.86
2016-10-31T03:42:53.787Z,1015.00
2016-10-31T03:43:15.537Z,1014.89
2016-10-31T03:43:37.312Z,1015.01
2016-10-31T03:43:59.034Z,1014.83
2016-10-31T03:44:20.761Z,1014.87
2016-10-31T03:44:42.480Z,1014.89
2016-10-31T03:45:04.199Z,1015.04
2016-10-31T03:45:25.918Z,1015.17
2016-10-31T03:45:47.649Z,1015.24
2016-10-31T03:46:09.377Z,1015.09
2016-10-31T03:46:31.120Z,1015.03
2016-10-31T03:46:52.838Z,1014.99
2016-10-31T03:47:14.553Z,1014.97
2016-10-31T03:47:36.283Z,1014.94
2016-10-31T03:47:58.018Z,1014.99
2016-10-31T03:48:19.756Z,1014.91
2016-10-31T03:48:41.482Z,1014.83
2016-10-31T03:49:03.209Z,1014.81
2016-10-31T03:49:24.928Z,1014.96
2016-10-31T03:49:46.655Z,1015.08
2016-10-31T03:50:13.166Z,1014.98
2016-10-31T03:50:34.896Z,1014.71
2016-10-31T03:50:56.622Z,1014.71
2016-10-31T03:51:18.337Z,1014.86
2016-10-31T03:51:40.061Z,1014.87
2016-10-31T03:52:01.787Z,1014.96
2016-10-31T03:52:23.508Z,1015.08
2016-10-31T03:52:45.220Z,1015.02
2016-10-31T03:53:06.953Z,1015.01
2016-10-31T03:53:28.694Z,1014.96
2016-10-31T03:53:50.417Z,1015.02
2016-10-31T03:54:12.139Z,1014.94
2016-10-31T03:54:33.859Z,1014.97
2016-10-31T03:54:55.589Z,1015.01
2016-10-31T03:55:17.306Z,1014.88
2016-10-31T03:55:39.037Z,1014.95
2016-10-31T03:56:00.762Z,1014.89
2016-10-31T03:56:22.481Z,1014.97
2016-10-31T03:56:44.206Z,1014.95
2016-10-31T03:57:05.925Z,1014.94
2016-10-31T03:57:27.654Z,1014.82
2016-10-31T03:57:49.377Z,1014.77
2016-10-31T03:58:11.111Z,1014.93
2016-10-31T03:58:32.857Z,1014.84
2016-10-31T03:58:54.571Z,1014.72
2016-10-31T03:59:16.294Z,1014.79
2016-10-31T03:59:38.022Z,1014.99
2016-10-31T03:59:59.762Z,1014.95
2016-10-31T04:00:21.483Z,1015.11
2016-10-31T04:00:43.202Z,1015.06
2016-10-31T04:01:04.926Z,1015.09
2016-10-31T04:01:26.646Z,1015.12
2016-10-31T04:01:48.367Z,1015.07
2016-10-31T04:02:10.095Z,1015.04
2016-10-31T04:02:31.818Z,1014.99
2016-10-31T04:02:53.549Z,1015.14
2016-10-31T04:03:15.266Z,1015.07
2016-10-31T04:03:36.989Z,1014.92
2016-10-31T04:03:58.712Z,1014.75
2016-10-31T04:04:20.441Z,1014.91
2016-10-31T04:04:42.161Z,1014.82
2016-10-31T04:05:03.885Z,1015.10
2016-10-31T04:05:25.614Z,1015.20
2016-10-31T04:05:47.330Z,1015.24
2016-10-31T04:06:09.050Z,1015.04
2016-10-31T04:06:30.787Z,1015.01
2016-10-31T04:06:52.520Z,1015.04
2016-10-31T04:07:14.274Z,1014.97
2016-10-31T04:07:35.995Z,1014.86
2016-10-31T04:07:57.717Z,1015.02
2016-10-31T04:08:24.306Z,1014.96
2016-10-31T04:08:46.022Z,1014.67
2016-10-31T04:09:07.749Z,1014.76
2016-10-31T04:09:29.478Z,1014.89
2016-10-31T04:09:51.196Z,1014.92
2016-10-31T04:10:12.917Z,1015.17
2016-10-31T04:10:34.658Z,1015.14
2016-10-31T04:10:56.381Z,1015.31
2016-10-31T04:11:18.096Z,1015.12
2016-10-31T04:11:39.811Z,1015.06
2016-10-31T04:12:01.541Z,1014.98
2016-10-31T04:12:23.261Z,1014.88
2016-10-31T04:12:44.984Z,1014.89
2016-10-31T04:13:06.719Z,1014.98
2016-10-31T04:13:28.440Z,1015.02
2016-10-31T04:13:50.154Z,1015.12
2016-10-31T04:14:11.870Z,1015.10
2016-10-31T04:14:33.589Z,1014.92
2016-10-31T04:14:55.327Z,1015.07
2016-10-31T04:15:17.065Z,1014.92
2016-10-31T04:15:38.783Z,1015.03
2016-10-31T04:16:00.497Z,1014.93
2016-10-31T04:16:22.213Z,1014.90
2016-10-31T04:16:43.931Z,1015.22
2016-10-31T04:17:05.652Z,1015.19
2016-10-31T04:17:53.890Z,1015.25
2016-10-31T04:18:15.609Z,1015.19
2016-10-31T04:18:37.413Z,1015.24
2016-10-31T04:18:59.139Z,1015.06
2016-10-31T04:19:20.868Z,1014.88
2016-10-31T04:19:42.585Z,1014.95
2016-10-31T04:20:04.306Z,1014.99
2016-10-31T04:20:26.029Z,1014.90
2016-10-31T04:20:47.744Z,1015.07
2016-10-31T04:21:09.464Z,1015.17
2016-10-31T04:21:31.184Z,1015.24
2016-10-31T04:21:52.923Z,1015.27
2016-10-31T04:22:14.647Z,1015.07
2016-10-31T04:22:36.371Z,1015.16
2016-10-31T04:22:58.096Z,1015.08
2016-10-31T04:23:19.811Z,1015.03
2016-10-31T04:23:41.531Z,1015.12
2016-10-31T04:24:03.259Z,1015.08
2016-10-31T04:24:24.979Z,1015.09
2016-10-31T04:24:46.699Z,1015.03
2016-10-31T04:25:08.434Z,1015.12